Grand Junction, CO

11:58 AM MDT on September 21, 2014 (GMT -0600)
Delta | Change Station
CLOSE
Current Station
Airport
Location: Delta,
Elevation: 5194 ft
Nearby Weather Stations
Active Advisory: Special Statement Active Notice: Public Information Statement

Elev 5194 ft 38.79 °N, 108.07 °W | Updated 23 minutes ago

Mostly Cloudy
Mostly Cloudy
69 °F
Feels Like 69 °F
N
4
Wind Variable Wind from NE

Today
High -- | Low -- °F
--% Chance of Precip.
Yesterday
High -- | Low -- °F
Precip. -- in
7:01 AM 7:12 PM
Waning Crescent, 6% visible
Pressure 30.31 in
Visibility 10.0 miles
Clouds Clear
Dew Point 58 °F
Humidity 67%
Rainfall 0.28 in
Snow Depth 0 in , 0 in , 0 in
UV 7 out of 12
Pollen 5.10 out of 12
Air Quality Not available.
Flu Activity Not available.
METAR KAJZ 211735Z AUTO 04003KT 10SM RA CLR 21/14 A3031 RMK AO2 T02050142

More Conditions Fewer Conditions

Pressure 30.31 in
Visibility 10.0 miles
Clouds Clear
Dew Point 58 °F
Humidity 67%
Rainfall 0.28 in
Snow Depth 0 in , 0 in , 0 in
UV 7 out of 12
Pollen 5.10 out of 12
Air Quality Not available.
Flu Activity Not available.
METAR KAJZ 211735Z AUTO 04003KT 10SM RA CLR 21/14 A3031 RMK AO2 T02050142

More Conditions Fewer Conditions

10-Day Weather Forecast

Almanac

Astronomy

Sep. 21, 2014 Rise Set
Actual Time 7:01 AM MDT 7:12 PM MDT
Civil Twilight 6:34 AM MDT 7:39 PM MDT
Nautical Twilight 6:03 AM MDT 8:10 PM MDT
Astronomical Twilight 5:31 AM MDT 8:42 PM MDT
Moon 4:38 AM MDT 5:49 PM MDT
Length of Visible Light 13h 05m
Length of Day
12h 11m
Tomorrow will be 2m 31s shorter.
Waning Crescent, 6% of the Moon is Illuminated
Today
Waning Crescent
Sep 24
New
Oct 1
First Quarter
Oct 8
Full
Oct 15
Last Quarter

Today's Extremes

State Highs State Lows

Community

WunderPhotos

Upload Photos

1,755,199 photos uploaded!

WunderBlogs® & News

Nearby

Snow Depth

Station Depth Elevation
Tower 0 in 10500 ft
Park Cone 0 in 9600 ft
Ute Creek 0 in 10650 ft
Molas Lake 0 in 10500 ft
El Diente Peak 0 in 10200 ft

Earthquake Activity

City Distance Mag. Time & Date
No recent earthquake activity has been reported nearby.
Minimum magnitude displayed is 2.5.

Coastal Water Temperatures

Place Temperature
No Stations Reporting

Nearby Weather Stations